createdAt,value
2023-09-21T00:01:21.002Z,23.13
2023-09-21T00:03:50.529Z,22.93
2023-09-21T00:06:19.968Z,22.77
2023-09-21T00:08:51.238Z,23.20
2023-09-21T00:11:20.029Z,22.87
2023-09-21T00:13:48.371Z,23.00
2023-09-21T00:16:19.447Z,22.70
2023-09-21T00:18:48.588Z,22.63
2023-09-21T00:21:17.369Z,22.70
2023-09-21T00:23:48.919Z,23.07
2023-09-21T00:26:19.726Z,22.97
2023-09-21T00:28:49.585Z,23.30
2023-09-21T00:31:17.647Z,23.40
2023-09-21T00:33:46.047Z,22.67
2023-09-21T00:36:18.811Z,22.53
2023-09-21T00:38:48.206Z,22.67
2023-09-21T00:41:18.863Z,22.77
2023-09-21T00:43:46.995Z,23.63
2023-09-21T00:46:15.993Z,23.33
2023-09-21T00:48:45.532Z,22.97
2023-09-21T00:51:15.575Z,23.37
2023-09-21T00:53:46.731Z,22.93
2023-09-21T00:56:19.089Z,23.30
2023-09-21T00:58:52.011Z,22.83
2023-09-21T01:01:29.337Z,22.43
2023-09-21T01:04:00.654Z,22.83
2023-09-21T01:06:29.295Z,23.47
2023-09-21T01:08:58.001Z,23.33
2023-09-21T01:11:26.766Z,23.77
2023-09-21T01:13:57.123Z,23.67
2023-09-21T01:16:25.914Z,24.40
2023-09-21T01:18:55.151Z,23.90
2023-09-21T01:21:32.764Z,23.87
2023-09-21T01:24:02.350Z,24.43
2023-09-21T01:26:31.004Z,23.97
2023-09-21T01:28:59.840Z,24.07
2023-09-21T01:31:28.295Z,24.70
2023-09-21T01:33:56.360Z,24.43
2023-09-21T01:36:24.779Z,24.77
2023-09-21T01:38:53.977Z,24.53
2023-09-21T01:41:23.816Z,24.97
2023-09-21T01:43:52.005Z,24.77
2023-09-21T01:46:23.297Z,24.53
2023-09-21T01:48:53.557Z,24.30
2023-09-21T01:51:22.554Z,24.60
2023-09-21T01:53:50.879Z,24.63
2023-09-21T01:56:19.552Z,25.37
2023-09-21T01:58:50.334Z,24.43
2023-09-21T02:01:19.769Z,25.10
2023-09-21T02:03:48.210Z,25.33
2023-09-21T02:06:16.655Z,25.53
2023-09-21T02:08:45.708Z,25.47
2023-09-21T02:11:14.838Z,24.80
2023-09-21T02:13:43.079Z,25.23
2023-09-21T02:16:16.212Z,25.00
2023-09-21T02:18:46.309Z,26.13
2023-09-21T02:21:18.877Z,25.30
2023-09-21T02:23:47.416Z,25.13
2023-09-21T02:26:16.912Z,25.13
2023-09-21T02:28:45.126Z,25.70
2023-09-21T02:31:14.734Z,25.10
2023-09-21T02:33:44.493Z,25.57
2023-09-21T02:36:20.644Z,26.47
2023-09-21T02:38:50.194Z,26.17
2023-09-21T02:41:18.804Z,25.67
2023-09-21T02:43:47.471Z,25.93
2023-09-21T02:46:16.815Z,25.93
2023-09-21T02:48:46.595Z,24.93
2023-09-21T02:51:16.072Z,24.70
2023-09-21T02:53:45.446Z,25.40
2023-09-21T02:56:13.757Z,25.17
2023-09-21T02:58:43.289Z,25.13
2023-09-21T03:01:13.204Z,25.57
2023-09-21T03:03:42.926Z,24.70
2023-09-21T03:06:13.878Z,24.77
2023-09-21T03:08:43.436Z,25.13
2023-09-21T03:11:12.503Z,24.80
2023-09-21T03:13:40.738Z,25.00
2023-09-21T03:16:14.397Z,24.87
2023-09-21T03:18:48.037Z,24.83
2023-09-21T03:21:17.335Z,24.93
2023-09-21T03:23:47.744Z,24.57
2023-09-21T03:26:16.765Z,24.80
2023-09-21T03:28:46.431Z,24.13
2023-09-21T03:31:17.970Z,24.73
2023-09-21T03:33:48.429Z,25.23
2023-09-21T03:36:18.087Z,24.83
2023-09-21T03:38:49.010Z,24.87
2023-09-21T03:41:17.520Z,25.23
2023-09-21T03:43:45.614Z,25.23
2023-09-21T03:46:13.803Z,24.77
2023-09-21T03:48:42.211Z,24.03
2023-09-21T03:51:13.780Z,24.17
2023-09-21T03:53:42.319Z,24.87
2023-09-21T03:56:11.169Z,25.27
2023-09-21T03:58:39.251Z,25.70
2023-09-21T04:01:08.066Z,25.63
2023-09-21T04:03:36.426Z,24.80
2023-09-21T04:06:06.759Z,25.23
2023-09-21T04:08:36.738Z,25.30
2023-09-21T04:11:04.682Z,25.40
2023-09-21T04:13:32.613Z,25.97
2023-09-21T04:16:00.765Z,25.37
2023-09-21T04:18:28.843Z,24.57
2023-09-21T04:21:16.449Z,25.27
2023-09-21T04:23:47.110Z,27.30
2023-09-21T04:26:19.349Z,25.80
2023-09-21T04:28:49.320Z,25.07
2023-09-21T04:31:17.798Z,25.90
2023-09-21T04:33:46.326Z,25.93
2023-09-21T04:36:15.139Z,25.60
2023-09-21T04:38:43.666Z,25.87
2023-09-21T04:41:16.871Z,25.73
2023-09-21T04:43:45.244Z,26.63
2023-09-21T04:46:14.874Z,26.50
2023-09-21T04:48:43.771Z,26.37
2023-09-21T04:51:15.473Z,26.97
2023-09-21T04:53:43.828Z,27.77
2023-09-21T04:56:12.502Z,28.50
2023-09-21T04:58:42.461Z,27.93
2023-09-21T05:01:12.054Z,28.40
2023-09-21T05:03:40.837Z,30.03
2023-09-21T05:06:09.256Z,30.73
2023-09-21T05:08:37.884Z,30.23
2023-09-21T05:11:06.941Z,29.77
2023-09-21T05:13:35.217Z,29.03
2023-09-21T05:16:05.689Z,30.87
2023-09-21T05:18:33.947Z,31.00
2023-09-21T05:21:05.800Z,31.93
2023-09-21T05:23:35.450Z,31.57
2023-09-21T05:26:04.331Z,29.77
2023-09-21T05:28:32.749Z,30.23
2023-09-21T05:31:01.501Z,30.90
2023-09-21T05:33:32.343Z,28.23
2023-09-21T05:36:06.058Z,27.90
2023-09-21T05:38:34.689Z,29.43
2023-09-21T05:41:04.846Z,30.23
2023-09-21T05:43:33.166Z,30.73
2023-09-21T05:46:01.441Z,30.10
2023-09-21T05:48:31.056Z,32.50
2023-09-21T05:51:00.660Z,36.70
2023-09-21T05:53:28.976Z,31.30
2023-09-21T05:55:59.143Z,33.90
2023-09-21T05:58:27.286Z,39.37
2023-09-21T06:00:55.360Z,47.37
2023-09-21T06:03:24.501Z,47.57
2023-09-21T06:05:54.282Z,55.70
2023-09-21T06:08:22.834Z,57.50
2023-09-21T06:10:51.374Z,59.17
2023-09-21T06:13:19.668Z,62.60
2023-09-21T06:15:48.173Z,60.67
2023-09-21T06:18:18.701Z,68.10
2023-09-21T06:20:47.288Z,73.60
2023-09-21T06:23:18.808Z,80.77
2023-09-21T06:25:47.301Z,80.17
2023-09-21T06:28:16.794Z,77.80
2023-09-21T06:30:46.101Z,80.77
2023-09-21T06:33:14.942Z,82.57
2023-09-21T06:35:43.694Z,80.57
2023-09-21T06:38:12.122Z,80.50
2023-09-21T06:40:41.731Z,83.67
2023-09-21T06:43:09.839Z,84.77
2023-09-21T06:45:38.098Z,90.83
2023-09-21T06:48:06.844Z,89.07
2023-09-21T06:50:35.115Z,79.67
2023-09-21T06:53:03.211Z,76.97
2023-09-21T06:55:31.586Z,77.20
2023-09-21T06:58:01.035Z,81.70
2023-09-21T07:00:29.169Z,80.23
2023-09-21T07:02:57.277Z,82.47
2023-09-21T07:05:25.421Z,90.80
2023-09-21T07:07:55.143Z,88.50
2023-09-21T07:10:23.475Z,91.30
2023-09-21T07:12:51.790Z,86.73
2023-09-21T07:15:22.930Z,87.10
2023-09-21T07:17:51.760Z,88.87
2023-09-21T07:20:24.818Z,90.23
2023-09-21T07:22:52.901Z,94.20
2023-09-21T07:25:21.362Z,96.73
2023-09-21T07:27:49.782Z,94.67
2023-09-21T07:30:17.935Z,95.93
2023-09-21T07:32:47.557Z,91.77
2023-09-21T07:35:16.439Z,83.17
2023-09-21T07:37:47.468Z,84.03
2023-09-21T07:40:16.211Z,81.17
2023-09-21T07:42:46.628Z,78.63
2023-09-21T07:45:14.691Z,78.50
2023-09-21T07:47:44.044Z,75.57
2023-09-21T07:50:13.769Z,77.30
2023-09-21T07:52:41.908Z,79.23
2023-09-21T07:55:11.297Z,74.33
2023-09-21T07:57:41.232Z,76.03
2023-09-21T08:00:11.625Z,79.80
2023-09-21T08:02:39.836Z,80.53
2023-09-21T08:05:11.370Z,82.07
2023-09-21T08:07:41.560Z,88.07
2023-09-21T08:10:12.223Z,88.23
2023-09-21T08:12:42.586Z,91.03
2023-09-21T08:15:12.946Z,89.70
2023-09-21T08:17:41.392Z,85.00
2023-09-21T08:20:11.426Z,85.90
2023-09-21T08:22:41.269Z,85.77
2023-09-21T08:25:09.920Z,88.20
2023-09-21T08:27:41.050Z,91.13
2023-09-21T08:30:10.571Z,90.20
2023-09-21T08:32:40.983Z,94.87
2023-09-21T08:35:10.171Z,95.27
2023-09-21T08:37:38.612Z,91.00
2023-09-21T08:40:10.091Z,89.87
2023-09-21T08:42:39.470Z,84.97
2023-09-21T08:45:09.570Z,79.87
2023-09-21T08:47:39.834Z,76.80
2023-09-21T08:50:10.109Z,76.47
2023-09-21T08:52:38.345Z,79.93
2023-09-21T08:55:12.257Z,76.27
2023-09-21T08:57:40.719Z,74.60
2023-09-21T09:00:10.674Z,77.80
2023-09-21T09:02:39.521Z,73.17
2023-09-21T09:05:09.115Z,73.67
2023-09-21T09:07:41.526Z,73.90
2023-09-21T09:10:12.889Z,64.43
2023-09-21T09:12:42.827Z,65.77
2023-09-21T09:15:12.132Z,62.80
2023-09-21T09:17:41.522Z,61.10
2023-09-21T09:20:10.719Z,64.20
2023-09-21T09:22:39.819Z,64.10
2023-09-21T09:25:11.925Z,69.23
2023-09-21T09:27:43.176Z,66.97
2023-09-21T09:30:14.101Z,67.83
2023-09-21T09:32:43.032Z,65.60
2023-09-21T09:35:14.795Z,61.13
2023-09-21T09:37:44.482Z,62.30
2023-09-21T09:40:20.261Z,61.67
2023-09-21T09:42:50.236Z,70.10
2023-09-21T09:45:20.960Z,74.03
2023-09-21T09:47:56.714Z,83.97
2023-09-21T09:50:26.462Z,75.47
2023-09-21T09:53:06.276Z,67.43
2023-09-21T09:55:37.692Z,76.20
2023-09-21T09:58:07.685Z,73.83
2023-09-21T10:00:36.924Z,63.37
2023-09-21T10:03:06.857Z,66.03
2023-09-21T10:05:37.189Z,72.53
2023-09-21T10:08:08.915Z,71.63
2023-09-21T10:10:46.223Z,74.00
2023-09-21T10:13:14.819Z,74.90
2023-09-21T10:15:44.598Z,77.40
2023-09-21T10:18:12.879Z,79.10
2023-09-21T10:20:41.124Z,86.30
2023-09-21T10:23:12.500Z,96.07
2023-09-21T10:25:46.465Z,98.33
2023-09-21T10:28:40.222Z,99.60
2023-09-21T10:31:26.195Z,100.60
2023-09-21T10:34:09.671Z,100.00
2023-09-21T10:36:43.651Z,101.30
2023-09-21T10:39:31.038Z,100.90
2023-09-21T10:42:38.560Z,99.90
2023-09-21T10:45:11.186Z,102.43
2023-09-21T10:47:49.517Z,102.70
2023-09-21T10:50:19.031Z,110.67
2023-09-21T10:52:49.663Z,112.40
2023-09-21T10:55:18.934Z,113.03
2023-09-21T10:57:50.114Z,111.13
2023-09-21T11:00:20.287Z,112.83
2023-09-21T11:02:51.082Z,103.33
2023-09-21T11:05:21.298Z,101.43
2023-09-21T11:07:51.992Z,102.40
2023-09-21T11:10:20.028Z,96.60
2023-09-21T11:12:50.183Z,92.10
2023-09-21T11:15:19.569Z,98.50
2023-09-21T11:17:49.389Z,98.60
2023-09-21T11:20:21.080Z,83.17
2023-09-21T11:22:50.608Z,90.60
2023-09-21T11:25:22.303Z,89.63
2023-09-21T11:27:54.424Z,89.17
2023-09-21T11:30:27.139Z,95.00
2023-09-21T11:32:56.897Z,95.37
2023-09-21T11:35:25.704Z,101.70
2023-09-21T11:37:53.874Z,109.50
2023-09-21T11:40:24.513Z,111.33
2023-09-21T11:43:01.361Z,111.23
2023-09-21T11:45:29.819Z,106.87
2023-09-21T11:48:00.322Z,109.23
2023-09-21T11:50:31.935Z,109.13
2023-09-21T11:53:00.466Z,105.50
2023-09-21T11:55:29.825Z,96.23
2023-09-21T11:58:09.357Z,99.07
2023-09-21T12:00:51.318Z,97.37
2023-09-21T12:03:23.707Z,98.10
2023-09-21T12:05:53.095Z,96.50
2023-09-21T12:08:22.696Z,92.57
2023-09-21T12:10:53.846Z,88.50
2023-09-21T12:13:25.217Z,87.90
2023-09-21T12:15:57.833Z,81.57
2023-09-21T12:18:30.180Z,74.17
2023-09-21T12:20:59.526Z,70.03
2023-09-21T12:23:28.403Z,73.67
2023-09-21T12:25:56.709Z,76.50
2023-09-21T12:28:26.186Z,73.40
2023-09-21T12:30:56.055Z,77.90
2023-09-21T12:35:56.010Z,85.80
2023-09-21T12:38:24.137Z,79.50
2023-09-21T12:40:54.266Z,82.17
2023-09-21T12:43:22.828Z,72.30
2023-09-21T12:45:52.205Z,79.17
2023-09-21T12:48:20.349Z,82.00
2023-09-21T12:50:48.893Z,72.37
2023-09-21T12:53:16.972Z,69.57
2023-09-21T12:55:45.402Z,72.80
2023-09-21T12:58:13.995Z,68.20
2023-09-21T13:00:42.707Z,63.13
2023-09-21T13:03:14.026Z,61.90
2023-09-21T13:05:45.088Z,61.73
2023-09-21T13:08:14.271Z,68.50
2023-09-21T13:10:42.276Z,57.80
2023-09-21T13:13:12.760Z,58.83
2023-09-21T13:15:41.610Z,65.77
2023-09-21T13:18:12.324Z,68.87
2023-09-21T13:20:40.650Z,65.33
2023-09-21T13:23:08.764Z,65.00
2023-09-21T13:25:37.142Z,52.83
2023-09-21T13:28:06.198Z,55.10
2023-09-21T13:30:35.045Z,51.53
2023-09-21T13:33:04.002Z,56.23
2023-09-21T13:35:35.875Z,50.30
2023-09-21T13:38:04.127Z,51.20
2023-09-21T13:40:32.171Z,52.50
2023-09-21T13:43:02.127Z,48.50
2023-09-21T13:45:30.656Z,47.33
2023-09-21T13:47:59.102Z,52.20
2023-09-21T13:50:29.911Z,53.80
2023-09-21T13:53:00.026Z,58.43
2023-09-21T13:55:28.387Z,60.20
2023-09-21T13:57:56.363Z,56.27
2023-09-21T14:00:26.032Z,57.77
2023-09-21T14:02:55.409Z,58.27
2023-09-21T14:05:24.357Z,61.00
2023-09-21T14:07:52.739Z,65.30
2023-09-21T14:10:22.187Z,65.93
2023-09-21T14:12:51.897Z,67.07
2023-09-21T14:15:22.412Z,70.57
2023-09-21T14:17:50.789Z,70.80
2023-09-21T14:20:20.390Z,73.63
2023-09-21T14:22:48.467Z,68.33
2023-09-21T14:25:16.932Z,73.17
2023-09-21T14:27:46.326Z,74.00
2023-09-21T14:30:16.955Z,81.37
2023-09-21T14:32:48.235Z,81.63
2023-09-21T14:35:16.566Z,73.13
2023-09-21T14:37:44.645Z,82.00
2023-09-21T14:40:13.545Z,79.13
2023-09-21T14:42:41.728Z,82.10
2023-09-21T14:45:12.327Z,80.83
2023-09-21T14:47:40.653Z,85.80
2023-09-21T14:50:10.622Z,87.57
2023-09-21T14:52:38.860Z,87.50
2023-09-21T14:55:07.624Z,85.40
2023-09-21T14:57:35.709Z,89.47
2023-09-21T15:00:08.144Z,78.97
2023-09-21T15:02:38.394Z,83.17
2023-09-21T15:05:09.788Z,92.10
2023-09-21T15:07:38.567Z,88.90
2023-09-21T15:10:07.390Z,76.70
2023-09-21T15:12:36.156Z,81.70
2023-09-21T15:15:06.487Z,91.50
2023-09-21T15:17:34.959Z,93.70
2023-09-21T15:20:06.062Z,96.70
2023-09-21T15:22:34.237Z,96.10
2023-09-21T15:25:02.431Z,95.47
2023-09-21T15:27:32.194Z,97.70
2023-09-21T15:30:00.550Z,97.60
2023-09-21T15:32:29.631Z,94.67
2023-09-21T15:34:57.902Z,95.20
2023-09-21T15:37:28.309Z,95.60
2023-09-21T15:39:56.937Z,93.93
2023-09-21T15:42:25.405Z,98.60
2023-09-21T15:44:53.485Z,100.20
2023-09-21T15:47:21.539Z,105.37
2023-09-21T15:49:50.005Z,100.30
2023-09-21T15:52:18.307Z,106.37
2023-09-21T15:54:47.743Z,110.87
2023-09-21T15:57:16.165Z,114.50
2023-09-21T15:59:44.300Z,112.63
2023-09-21T16:02:15.189Z,117.40
2023-09-21T16:04:43.759Z,118.97
2023-09-21T16:07:11.766Z,121.33
2023-09-21T16:09:40.891Z,116.67
2023-09-21T16:12:10.818Z,113.93
2023-09-21T16:14:39.078Z,112.30
2023-09-21T16:17:07.052Z,107.47
2023-09-21T16:19:35.154Z,114.87
2023-09-21T16:22:03.376Z,110.07
2023-09-21T16:24:31.400Z,109.33
2023-09-21T16:27:00.208Z,112.50
2023-09-21T16:29:29.750Z,108.80
2023-09-21T16:31:57.861Z,110.77
2023-09-21T16:34:26.315Z,114.97
2023-09-21T16:36:54.404Z,110.70
2023-09-21T16:39:23.203Z,116.30
2023-09-21T16:41:51.685Z,120.27
2023-09-21T16:44:20.451Z,125.33
2023-09-21T16:46:51.919Z,126.07
2023-09-21T16:49:20.067Z,124.40
2023-09-21T16:51:48.341Z,124.77
2023-09-21T16:54:16.423Z,118.30
2023-09-21T16:56:44.434Z,113.77
2023-09-21T16:59:13.321Z,109.83
2023-09-21T17:01:41.618Z,105.53
2023-09-21T17:04:11.666Z,102.00
2023-09-21T17:06:40.328Z,104.50
2023-09-21T17:09:09.484Z,104.53
2023-09-21T17:11:38.240Z,110.20
2023-09-21T17:14:06.828Z,109.40
2023-09-21T17:16:35.382Z,109.73
2023-09-21T17:19:07.467Z,118.70
2023-09-21T17:21:38.310Z,118.20
2023-09-21T17:24:07.175Z,126.10
2023-09-21T17:26:35.640Z,131.50
2023-09-21T17:29:03.999Z,145.77
2023-09-21T17:31:33.138Z,150.40
2023-09-21T17:34:02.420Z,138.00
2023-09-21T17:36:31.345Z,134.30
2023-09-21T17:39:01.663Z,139.50
2023-09-21T17:41:30.438Z,129.90
2023-09-21T17:43:58.759Z,134.00
2023-09-21T17:46:27.418Z,129.83
2023-09-21T17:48:57.095Z,129.17
2023-09-21T17:51:27.888Z,134.50
2023-09-21T17:53:56.836Z,139.60
2023-09-21T17:56:27.280Z,135.33
2023-09-21T17:58:55.935Z,134.80
2023-09-21T18:01:27.212Z,138.47
2023-09-21T18:03:56.644Z,133.80
2023-09-21T18:06:25.240Z,131.97
2023-09-21T18:08:53.797Z,128.60
2023-09-21T18:11:22.437Z,129.17
2023-09-21T18:13:52.939Z,124.17
2023-09-21T18:16:21.597Z,122.17
2023-09-21T18:18:50.468Z,127.37
2023-09-21T18:21:19.048Z,128.10
2023-09-21T18:23:48.872Z,129.63
2023-09-21T18:26:20.178Z,128.43
2023-09-21T18:28:49.573Z,128.33
2023-09-21T18:31:19.915Z,131.57
2023-09-21T18:33:50.275Z,129.33
2023-09-21T18:36:19.371Z,131.60
2023-09-21T18:38:48.800Z,132.03
2023-09-21T18:41:19.496Z,131.97
2023-09-21T18:43:49.110Z,128.53
2023-09-21T18:46:19.715Z,130.70
2023-09-21T18:48:48.924Z,132.07
2023-09-21T18:51:17.853Z,136.07
2023-09-21T18:53:46.934Z,133.23
2023-09-21T18:56:16.721Z,134.50
2023-09-21T18:58:46.249Z,133.67
2023-09-21T19:01:15.140Z,134.43
2023-09-21T19:03:45.452Z,133.20
2023-09-21T19:06:15.700Z,134.17
2023-09-21T19:08:44.901Z,136.23
2023-09-21T19:11:13.733Z,134.03
2023-09-21T19:13:41.733Z,130.17
2023-09-21T19:16:12.525Z,131.97
2023-09-21T19:18:41.715Z,128.63
2023-09-21T19:21:13.143Z,132.17
2023-09-21T19:23:41.799Z,134.37
2023-09-21T19:26:09.991Z,131.20
2023-09-21T19:28:38.087Z,126.97
2023-09-21T19:31:06.787Z,129.20
2023-09-21T19:33:34.951Z,131.23
2023-09-21T19:36:02.949Z,129.60
2023-09-21T19:38:32.534Z,129.80
2023-09-21T19:41:00.658Z,130.77
2023-09-21T19:43:28.976Z,131.40
2023-09-21T19:45:57.620Z,129.40
2023-09-21T19:48:25.836Z,133.10
2023-09-21T19:50:54.951Z,133.73
2023-09-21T19:53:25.148Z,132.53
2023-09-21T19:55:55.013Z,136.00
2023-09-21T19:58:23.004Z,132.63
2023-09-21T20:00:51.403Z,131.80
2023-09-21T20:03:19.977Z,132.70
2023-09-21T20:05:48.472Z,135.67
2023-09-21T20:08:16.560Z,137.27
2023-09-21T20:10:44.738Z,136.50
2023-09-21T20:13:14.252Z,135.70
2023-09-21T20:15:42.530Z,134.40
2023-09-21T20:18:10.758Z,134.33
2023-09-21T20:20:38.850Z,138.87
2023-09-21T20:23:07.157Z,140.57
2023-09-21T20:25:38.499Z,139.67
2023-09-21T20:28:07.025Z,140.40
2023-09-21T20:30:36.583Z,140.17
2023-09-21T20:33:05.404Z,135.20
2023-09-21T20:35:33.808Z,132.17
2023-09-21T20:38:01.842Z,140.10
2023-09-21T20:40:29.992Z,140.75
2023-09-21T20:42:58.446Z,139.10
2023-09-21T20:45:26.834Z,134.77
2023-09-21T20:47:56.695Z,136.77
2023-09-21T20:50:25.142Z,136.40
2023-09-21T20:52:53.474Z,133.40
2023-09-21T20:55:22.170Z,133.90
2023-09-21T20:57:50.486Z,135.77
2023-09-21T21:00:21.085Z,131.03
2023-09-21T21:02:49.657Z,131.30
2023-09-21T21:05:22.468Z,128.70
2023-09-21T21:07:51.127Z,130.67
2023-09-21T21:10:19.258Z,130.03
2023-09-21T21:12:47.310Z,131.40
2023-09-21T21:15:15.654Z,131.47
2023-09-21T21:17:44.168Z,131.90
2023-09-21T21:20:13.330Z,134.10
2023-09-21T21:22:42.838Z,134.23
2023-09-21T21:25:12.332Z,131.60
2023-09-21T21:27:40.703Z,132.47
2023-09-21T21:30:09.907Z,131.73
2023-09-21T21:32:37.837Z,131.57
2023-09-21T21:35:06.901Z,136.40
2023-09-21T21:37:35.117Z,135.43
2023-09-21T21:40:05.287Z,132.10
2023-09-21T21:42:33.297Z,132.83
2023-09-21T21:45:01.517Z,132.73
2023-09-21T21:47:30.286Z,130.37
2023-09-21T21:49:58.348Z,132.87
2023-09-21T21:52:26.478Z,134.17
2023-09-21T21:54:54.929Z,133.27
2023-09-21T21:57:25.027Z,132.50
2023-09-21T21:59:53.242Z,133.43
2023-09-21T22:02:21.248Z,132.77
2023-09-21T22:04:50.991Z,132.67
2023-09-21T22:07:19.987Z,126.10
2023-09-21T22:09:48.616Z,133.07
2023-09-21T22:12:18.783Z,129.30
2023-09-21T22:14:48.466Z,134.50
2023-09-21T22:17:16.748Z,134.20
2023-09-21T22:19:44.934Z,137.67
2023-09-21T22:22:13.411Z,137.30
2023-09-21T22:24:41.731Z,137.73
2023-09-21T22:27:10.088Z,139.33
2023-09-21T22:29:38.158Z,137.23
2023-09-21T22:32:07.527Z,136.03
2023-09-21T22:34:35.923Z,136.80
2023-09-21T22:37:04.074Z,138.67
2023-09-21T22:39:34.047Z,141.80
2023-09-21T22:42:02.435Z,138.67
2023-09-21T22:44:30.529Z,137.07
2023-09-21T22:46:58.474Z,137.80
2023-09-21T22:49:28.600Z,138.73
2023-09-21T22:51:57.073Z,139.27
2023-09-21T22:54:25.350Z,138.27
2023-09-21T22:56:53.515Z,138.80
2023-09-21T22:59:22.394Z,137.50
2023-09-21T23:01:50.455Z,136.27
2023-09-21T23:04:18.942Z,138.70
2023-09-21T23:06:48.766Z,138.37
2023-09-21T23:09:18.163Z,135.80
2023-09-21T23:11:46.480Z,137.57
2023-09-21T23:14:14.460Z,135.83
2023-09-21T23:16:42.906Z,137.60
2023-09-21T23:19:11.159Z,135.90
2023-09-21T23:21:39.294Z,134.23
2023-09-21T23:24:11.864Z,139.13
2023-09-21T23:26:40.781Z,134.63
2023-09-21T23:29:09.784Z,136.97
2023-09-21T23:31:37.850Z,140.77
2023-09-21T23:34:06.829Z,139.27
2023-09-21T23:36:36.922Z,134.53
2023-09-21T23:39:13.786Z,133.87
2023-09-21T23:41:43.398Z,136.77
2023-09-21T23:44:13.834Z,136.63
2023-09-21T23:46:43.661Z,137.10
2023-09-21T23:49:11.730Z,137.90
2023-09-21T23:51:39.943Z,137.63
2023-09-21T23:54:08.717Z,136.70
2023-09-21T23:56:36.723Z,132.67
2023-09-21T23:59:06.176Z,134.70
